Time;durP1;ratioP1;P1;durP2;ratioP2;P2;SDS_P1;SDS_P2;PMS_P1;PMS_P2;Temp;Humidity;BMP_temperature;BMP_pressure;BME280_temperature;BME280_humidity;BME280_pressure;Samples;Min_cycle;Max_cycle;Signal;HPM_P1;HPM_P2
2022/05/22 00:02:21;;;;;;;12.27;4.65;;;;;;;;;;5095027;28;20509;-66
2022/05/22 00:04:46;;;;;;;9.90;3.88;;;;;;;;;;5095664;28;20063;-66
2022/05/22 00:07:12;;;;;;;12.05;4.53;;;;;;;;;;5095580;28;20135;-66
2022/05/22 00:09:38;;;;;;;13.85;4.40;;;;;;;;;;5095813;28;20048;-66
2022/05/22 00:12:05;;;;;;;16.88;5.32;;;;;;;;;;5095440;28;20547;-66
2022/05/22 00:14:32;;;;;;;10.68;5.47;;;;;;;;;;5095607;28;20094;-66
2022/05/22 00:16:59;;;;;;;11.38;5.72;;;;;;;;;;5095671;28;20075;-66
2022/05/22 00:19:29;;;;;;;12.57;6.75;;;;;;;;;;5096055;28;20043;-66
2022/05/22 00:21:55;;;;;;;11.68;6.13;;;;;;;;;;5095737;28;20154;-66
2022/05/22 00:24:23;;;;;;;13.43;6.72;;;;;;;;;;5093996;28;20120;-66
2022/05/22 00:26:50;;;;;;;16.05;6.78;;;;;;;;;;5095525;28;20123;-66
2022/05/22 00:29:16;;;;;;;12.70;6.63;;;;;;;;;;5095889;28;20040;-66
2022/05/22 00:31:42;;;;;;;17.08;7.38;;;;;;;;;;5094861;28;20059;-65
2022/05/22 00:34:09;;;;;;;15.77;8.63;;;;;;;;;;5110683;28;20471;-66
2022/05/22 00:36:35;;;;;;;13.98;10.23;;;;;;;;;;5094898;28;20048;-66
2022/05/22 00:39:01;;;;;;;12.85;9.85;;;;;;;;;;5093256;28;20048;-66
2022/05/22 00:41:27;;;;;;;19.35;11.65;;;;;;;;;;5094590;28;20063;-66
2022/05/22 00:43:54;;;;;;;22.15;11.30;;;;;;;;;;5093988;28;20524;-66
2022/05/22 00:46:21;;;;;;;25.88;11.95;;;;;;;;;;5095104;28;20044;-65
2022/05/22 00:48:49;;;;;;;20.48;12.30;;;;;;;;;;5092996;28;20076;-65
2022/05/22 00:51:27;;;;;;;19.85;11.55;;;;;;;;;;5091605;28;20040;-66
2022/05/22 00:53:55;;;;;;;21.63;12.07;;;;;;;;;;5097547;28;20122;-66
2022/05/22 00:56:24;;;;;;;17.63;11.77;;;;;;;;;;5094787;28;20047;-66
2022/05/22 00:58:51;;;;;;;18.13;11.18;;;;;;;;;;5093326;28;20476;-66
2022/05/22 01:01:17;;;;;;;22.27;11.60;;;;;;;;;;5094400;28;20060;-66
2022/05/22 01:03:43;;;;;;;20.02;11.35;;;;;;;;;;5090423;28;20041;-66
2022/05/22 01:06:20;;;;;;;18.77;11.55;;;;;;;;;;5092556;28;20067;-66
2022/05/22 01:08:47;;;;;;;24.15;11.13;;;;;;;;;;5093242;28;20049;-66
2022/05/22 01:11:15;;;;;;;17.60;10.98;;;;;;;;;;5094750;28;20052;-67
2022/05/22 01:13:50;;;;;;;27.27;12.98;;;;;;;;;;5094857;28;20115;-66
2022/05/22 01:16:15;;;;;;;18.52;10.70;;;;;;;;;;5093763;28;20128;-66
2022/05/22 01:18:42;;;;;;;13.40;9.57;;;;;;;;;;5094345;28;20500;-66
2022/05/22 01:21:11;;;;;;;19.50;9.40;;;;;;;;;;5088886;28;20127;-66
2022/05/22 01:23:37;;;;;;;21.58;10.63;;;;;;;;;;5093080;28;20094;-66
2022/05/22 01:26:03;;;;;;;15.73;10.00;;;;;;;;;;5093113;28;20185;-66
2022/05/22 01:28:29;;;;;;;17.00;8.85;;;;;;;;;;5093024;28;20259;-66
2022/05/22 01:30:55;;;;;;;19.85;10.57;;;;;;;;;;5094196;28;20495;-66
2022/05/22 01:33:21;;;;;;;21.38;10.15;;;;;;;;;;5092765;28;20491;-66
2022/05/22 01:35:47;;;;;;;14.75;9.73;;;;;;;;;;5092751;28;20056;-66
2022/05/22 01:38:13;;;;;;;20.95;10.30;;;;;;;;;;5093513;28;20153;-66
2022/05/22 01:40:39;;;;;;;19.73;9.57;;;;;;;;;;5093309;28;20503;-66
2022/05/22 01:43:05;;;;;;;18.77;9.45;;;;;;;;;;5093709;28;20043;-66
2022/05/22 01:45:31;;;;;;;16.15;8.30;;;;;;;;;;5093012;28;20394;-66
2022/05/22 01:47:57;;;;;;;20.13;9.43;;;;;;;;;;5093583;28;20462;-66
2022/05/22 01:50:23;;;;;;;19.98;9.05;;;;;;;;;;5092822;28;20083;-65
2022/05/22 01:52:50;;;;;;;15.52;9.10;;;;;;;;;;5092528;28;20080;-66
2022/05/22 01:55:16;;;;;;;16.40;9.27;;;;;;;;;;5092537;28;20048;-66
2022/05/22 01:57:42;;;;;;;17.80;9.13;;;;;;;;;;5092787;28;20046;-66
2022/05/22 02:00:10;;;;;;;17.80;8.82;;;;;;;;;;5092933;28;20040;-66
2022/05/22 02:02:36;;;;;;;18.85;9.20;;;;;;;;;;5092403;28;20399;-66
2022/05/22 02:05:02;;;;;;;13.38;7.93;;;;;;;;;;5092699;28;20047;-65
2022/05/22 02:10:13;;;;;;;15.20;7.53;;;;;;;;;;5092791;28;20052;-66
2022/05/22 02:12:39;;;;;;;15.73;7.88;;;;;;;;;;5089043;28;20051;-66
2022/05/22 02:15:06;;;;;;;20.67;9.55;;;;;;;;;;5092249;28;20044;-67
2022/05/22 02:17:32;;;;;;;26.67;9.88;;;;;;;;;;5089907;28;20074;-66
2022/05/22 02:19:58;;;;;;;17.13;8.52;;;;;;;;;;5088878;28;20384;-66
2022/05/22 02:22:25;;;;;;;15.32;7.50;;;;;;;;;;5092160;28;20047;-66
2022/05/22 02:24:51;;;;;;;15.40;8.60;;;;;;;;;;5093187;28;20048;-66
2022/05/22 02:27:17;;;;;;;17.20;8.32;;;;;;;;;;5092699;28;20032;-66
2022/05/22 02:29:43;;;;;;;21.33;9.30;;;;;;;;;;5091422;28;20105;-65
2022/05/22 02:32:09;;;;;;;26.52;9.52;;;;;;;;;;5096447;28;20081;-66
2022/05/22 02:34:35;;;;;;;26.60;10.57;;;;;;;;;;5093822;28;20127;-66
2022/05/22 02:37:01;;;;;;;19.70;8.30;;;;;;;;;;5091969;28;20062;-66
2022/05/22 02:39:27;;;;;;;20.42;8.45;;;;;;;;;;5092328;28;20115;-66
2022/05/22 02:41:53;;;;;;;25.20;8.90;;;;;;;;;;5093767;28;20044;-66
2022/05/22 02:44:19;;;;;;;15.93;7.75;;;;;;;;;;5092914;28;20546;-66
2022/05/22 02:46:45;;;;;;;23.38;9.57;;;;;;;;;;5093835;28;20036;-66
2022/05/22 02:49:11;;;;;;;38.55;11.05;;;;;;;;;;5092403;28;20097;-66
2022/05/22 02:51:37;;;;;;;33.15;10.02;;;;;;;;;;5091654;28;20071;-66
2022/05/22 02:54:04;;;;;;;37.45;11.98;;;;;;;;;;5092901;28;20044;-66
2022/05/22 02:56:30;;;;;;;46.33;13.57;;;;;;;;;;5091824;28;20039;-66
2022/05/22 02:58:56;;;;;;;28.90;11.02;;;;;;;;;;5091647;28;20388;-66
2022/05/22 03:01:22;;;;;;;27.50;11.05;;;;;;;;;;5091970;28;20040;-66
2022/05/22 03:03:48;;;;;;;36.15;10.93;;;;;;;;;;5091598;28;20046;-66
2022/05/22 03:08:58;;;;;;;45.58;13.15;;;;;;;;;;5096938;28;20048;-65
2022/05/22 03:11:24;;;;;;;42.40;12.38;;;;;;;;;;5095266;28;20047;-66
2022/05/22 03:13:50;;;;;;;37.00;12.18;;;;;;;;;;5095936;28;20051;-66
2022/05/22 03:16:17;;;;;;;33.88;10.68;;;;;;;;;;5095776;28;20075;-66
2022/05/22 03:18:43;;;;;;;51.08;14.30;;;;;;;;;;5095564;28;20044;-66
2022/05/22 03:21:09;;;;;;;46.95;13.95;;;;;;;;;;5096207;28;20399;-66
2022/05/22 03:23:37;;;;;;;53.92;14.23;;;;;;;;;;5096474;28;20097;-66
2022/05/22 03:26:03;;;;;;;36.20;11.38;;;;;;;;;;5095622;28;20044;-66
2022/05/22 03:28:29;;;;;;;31.13;10.68;;;;;;;;;;5095915;28;20050;-66
2022/05/22 03:30:55;;;;;;;39.50;11.68;;;;;;;;;;5095200;28;20040;-66
2022/05/22 03:33:21;;;;;;;59.95;12.40;;;;;;;;;;5095361;28;20044;-66
2022/05/22 03:35:48;;;;;;;28.02;9.15;;;;;;;;;;5096042;28;20110;-65
2022/05/22 03:38:14;;;;;;;35.70;11.65;;;;;;;;;;5095667;28;20040;-65
2022/05/22 03:40:47;;;;;;;33.50;11.25;;;;;;;;;;5095445;28;20040;-65
2022/05/22 03:43:17;;;;;;;27.50;9.77;;;;;;;;;;5095560;28;20039;-66
2022/05/22 03:45:44;;;;;;;29.38;10.63;;;;;;;;;;5096114;28;20436;-66
2022/05/22 03:48:10;;;;;;;46.15;12.75;;;;;;;;;;5095592;28;20141;-65
2022/05/22 03:50:36;;;;;;;52.67;13.73;;;;;;;;;;5095215;28;20040;-66
2022/05/22 03:53:03;;;;;;;47.97;14.05;;;;;;;;;;5094164;28;20047;-66
2022/05/22 03:55:29;;;;;;;40.85;12.35;;;;;;;;;;5095232;28;20055;-66
2022/05/22 03:57:56;;;;;;;47.28;13.68;;;;;;;;;;5096198;28;20521;-66
2022/05/22 04:00:24;;;;;;;45.55;13.05;;;;;;;;;;5095104;28;20437;-66
2022/05/22 04:02:51;;;;;;;32.40;11.43;;;;;;;;;;5095200;28;20404;-66
2022/05/22 04:05:17;;;;;;;27.08;11.02;;;;;;;;;;5094973;28;20040;-66
2022/05/22 04:07:44;;;;;;;44.85;13.93;;;;;;;;;;5095668;28;20036;-66
2022/05/22 04:10:12;;;;;;;59.50;18.02;;;;;;;;;;5095011;28;20128;-66
2022/05/22 04:12:39;;;;;;;78.82;20.17;;;;;;;;;;5094783;28;20085;-66
2022/05/22 04:15:06;;;;;;;55.45;16.52;;;;;;;;;;5094766;28;20056;-66
2022/05/22 04:17:32;;;;;;;40.05;14.27;;;;;;;;;;5093899;28;20485;-65
2022/05/22 04:19:58;;;;;;;58.50;16.92;;;;;;;;;;5095018;28;20082;-66
2022/05/22 04:22:24;;;;;;;92.40;22.88;;;;;;;;;;5094908;28;20051;-66
2022/05/22 04:27:38;;;;;;;65.10;21.10;;;;;;;;;;5094313;28;20554;-66
2022/05/22 04:30:05;;;;;;;38.67;12.65;;;;;;;;;;5088975;28;20410;-66
2022/05/22 04:32:31;;;;;;;42.13;14.38;;;;;;;;;;5093575;28;20441;-64
2022/05/22 04:34:57;;;;;;;59.60;16.10;;;;;;;;;;5092734;28;20051;-66
2022/05/22 04:37:23;;;;;;;37.90;13.30;;;;;;;;;;5093950;28;20056;-65
2022/05/22 04:39:49;;;;;;;81.53;20.65;;;;;;;;;;5095099;28;20043;-65
2022/05/22 04:42:15;;;;;;;118.93;29.48;;;;;;;;;;5093759;28;20036;-65
2022/05/22 04:44:41;;;;;;;110.80;24.77;;;;;;;;;;5094936;28;20048;-66
2022/05/22 04:47:07;;;;;;;94.18;23.15;;;;;;;;;;5094725;28;20394;-65
2022/05/22 04:49:33;;;;;;;94.18;25.23;;;;;;;;;;5094241;28;20055;-66
2022/05/22 04:52:00;;;;;;;96.00;25.05;;;;;;;;;;5094060;28;20040;-65
2022/05/22 04:54:26;;;;;;;41.85;13.80;;;;;;;;;;5094030;28;20050;-67
2022/05/22 04:56:53;;;;;;;71.75;21.83;;;;;;;;;;5094805;28;20051;-66
2022/05/22 04:59:19;;;;;;;74.18;20.42;;;;;;;;;;5094025;28;20048;-66
2022/05/22 05:01:45;;;;;;;89.47;26.17;;;;;;;;;;5093709;28;20529;-65
2022/05/22 05:04:14;;;;;;;107.07;27.20;;;;;;;;;;5093908;28;20040;-65
2022/05/22 05:06:40;;;;;;;31.23;12.23;;;;;;;;;;5093570;28;20506;-65
2022/05/22 05:09:06;;;;;;;58.03;17.17;;;;;;;;;;5094257;28;20040;-66
2022/05/22 05:11:32;;;;;;;83.50;21.85;;;;;;;;;;5093518;28;20483;-66
2022/05/22 05:13:58;;;;;;;62.05;18.75;;;;;;;;;;5093421;28;20437;-66
2022/05/22 05:16:24;;;;;;;76.88;22.15;;;;;;;;;;5093450;28;20063;-66
2022/05/22 05:18:50;;;;;;;61.65;16.23;;;;;;;;;;5093478;28;20490;-66
2022/05/22 05:21:18;;;;;;;33.85;13.52;;;;;;;;;;5094221;28;20093;-66
2022/05/22 05:23:44;;;;;;;64.75;18.98;;;;;;;;;;5088250;28;20472;-66
2022/05/22 05:26:10;;;;;;;39.20;13.90;;;;;;;;;;5093630;28;20047;-67
2022/05/22 05:28:36;;;;;;;25.88;11.77;;;;;;;;;;5092890;28;20036;-66
2022/05/22 05:31:03;;;;;;;55.17;17.65;;;;;;;;;;5094084;28;20043;-66
2022/05/22 05:33:31;;;;;;;26.65;11.32;;;;;;;;;;5093515;28;20047;-66
2022/05/22 05:35:58;;;;;;;24.40;12.38;;;;;;;;;;5093271;28;20064;-66
2022/05/22 05:38:24;;;;;;;44.60;15.75;;;;;;;;;;5093718;28;20133;-66
2022/05/22 05:40:50;;;;;;;32.33;15.25;;;;;;;;;;5093206;28;20448;-66
2022/05/22 05:43:16;;;;;;;33.90;14.15;;;;;;;;;;5093773;28;20047;-66
2022/05/22 05:45:43;;;;;;;33.63;12.70;;;;;;;;;;5093059;28;20047;-66
2022/05/22 05:48:09;;;;;;;76.50;20.17;;;;;;;;;;5092619;28;20546;-66
2022/05/22 05:50:35;;;;;;;25.50;12.05;;;;;;;;;;5093121;28;20119;-66
2022/05/22 05:53:02;;;;;;;27.25;11.50;;;;;;;;;;5093510;28;20051;-66
2022/05/22 05:55:28;;;;;;;27.73;11.73;;;;;;;;;;5093222;28;20040;-66
2022/05/22 05:57:54;;;;;;;26.80;9.85;;;;;;;;;;5099238;28;20048;-67
2022/05/22 06:00:23;;;;;;;26.55;9.65;;;;;;;;;;5101298;28;20044;-66
2022/05/22 06:02:49;;;;;;;25.25;9.13;;;;;;;;;;5096148;28;20385;-66
2022/05/22 06:05:15;;;;;;;24.00;8.50;;;;;;;;;;5093294;28;20048;-66
2022/05/22 06:07:41;;;;;;;22.27;9.07;;;;;;;;;;5092848;28;20040;-66
2022/05/22 06:10:12;;;;;;;20.23;8.48;;;;;;;;;;5093062;28;20047;-66
2022/05/22 06:12:38;;;;;;;19.17;7.90;;;;;;;;;;5088139;28;20040;-67
2022/05/22 06:15:04;;;;;;;18.52;8.63;;;;;;;;;;5092085;28;20529;-66
2022/05/22 06:17:31;;;;;;;16.65;8.50;;;;;;;;;;5091963;28;20093;-66
2022/05/22 06:19:57;;;;;;;24.52;8.73;;;;;;;;;;5090653;28;20040;-66
2022/05/22 06:22:28;;;;;;;23.13;8.32;;;;;;;;;;5092033;28;20036;-66
2022/05/22 06:24:54;;;;;;;20.52;8.75;;;;;;;;;;5088856;28;20067;-66
2022/05/22 06:27:21;;;;;;;23.60;8.30;;;;;;;;;;5087427;28;20449;-66
2022/05/22 06:29:47;;;;;;;20.35;7.75;;;;;;;;;;5092416;28;20040;-66
2022/05/22 06:32:15;;;;;;;19.83;7.53;;;;;;;;;;5091493;28;20184;-67
2022/05/22 06:34:41;;;;;;;17.98;7.30;;;;;;;;;;5091804;28;20048;-67
2022/05/22 06:37:08;;;;;;;18.88;7.50;;;;;;;;;;5089840;28;20052;-66
2022/05/22 06:39:51;;;;;;;19.35;7.35;;;;;;;;;;5092696;28;20048;-66
2022/05/22 06:42:46;;;;;;;24.42;6.80;;;;;;;;;;5088995;28;20536;-66
2022/05/22 06:45:17;;;;;;;15.10;7.28;;;;;;;;;;5089074;28;20131;-66
2022/05/22 06:47:44;;;;;;;16.58;6.30;;;;;;;;;;5088971;28;20479;-67
2022/05/22 06:50:15;;;;;;;21.40;7.95;;;;;;;;;;5090141;28;20101;-66
2022/05/22 06:52:41;;;;;;;17.05;6.65;;;;;;;;;;5092195;28;20040;-66
2022/05/22 06:55:08;;;;;;;15.35;6.05;;;;;;;;;;5091783;28;20093;-66
2022/05/22 06:57:34;;;;;;;14.18;6.28;;;;;;;;;;5092279;28;20473;-65
2022/05/22 07:00:00;;;;;;;17.77;6.80;;;;;;;;;;5091462;28;20044;-66
2022/05/22 07:02:30;;;;;;;16.13;5.95;;;;;;;;;;5091678;28;20089;-66
2022/05/22 07:04:56;;;;;;;14.98;5.70;;;;;;;;;;5090621;28;20040;-66
2022/05/22 07:07:22;;;;;;;15.57;5.68;;;;;;;;;;5090125;28;20040;-66
2022/05/22 07:09:48;;;;;;;22.15;7.93;;;;;;;;;;5092211;28;20043;-66
2022/05/22 07:12:15;;;;;;;16.30;5.93;;;;;;;;;;5091415;28;20039;-66
2022/05/22 07:14:42;;;;;;;23.25;7.22;;;;;;;;;;5089100;28;20043;-66
2022/05/22 07:17:09;;;;;;;18.27;6.05;;;;;;;;;;5091487;28;20372;-65
2022/05/22 07:19:37;;;;;;;17.50;5.90;;;;;;;;;;5092692;28;20044;-65
2022/05/22 07:22:03;;;;;;;12.73;4.50;;;;;;;;;;5091369;28;20097;-66
2022/05/22 07:24:29;;;;;;;13.80;4.68;;;;;;;;;;5091043;28;20036;-65
2022/05/22 07:26:55;;;;;;;17.58;4.63;;;;;;;;;;5091464;28;20049;-65
2022/05/22 07:29:21;;;;;;;13.18;3.72;;;;;;;;;;5092210;28;20044;-65
2022/05/22 07:31:47;;;;;;;24.88;7.55;;;;;;;;;;5090566;28;20040;-66
2022/05/22 07:34:13;;;;;;;15.40;4.80;;;;;;;;;;5091373;28;20036;-65
2022/05/22 07:36:39;;;;;;;11.77;4.03;;;;;;;;;;5090818;28;20574;-66
2022/05/22 07:39:05;;;;;;;11.30;3.88;;;;;;;;;;5090706;28;20048;-66
2022/05/22 07:41:31;;;;;;;11.20;3.70;;;;;;;;;;5091578;28;20079;-65
2022/05/22 07:43:59;;;;;;;16.23;5.20;;;;;;;;;;5091193;28;20040;-65
2022/05/22 07:46:25;;;;;;;12.25;4.30;;;;;;;;;;5089875;28;20406;-66
2022/05/22 07:48:51;;;;;;;14.07;4.38;;;;;;;;;;5089917;28;20066;-67
2022/05/22 07:51:17;;;;;;;11.10;4.50;;;;;;;;;;5088741;28;20159;-65
2022/05/22 07:53:43;;;;;;;11.63;4.78;;;;;;;;;;5093945;28;20067;-66
2022/05/22 07:56:09;;;;;;;11.15;4.43;;;;;;;;;;5095169;28;20039;-66
2022/05/22 07:58:35;;;;;;;13.07;4.53;;;;;;;;;;5093609;28;20486;-66
2022/05/22 08:01:02;;;;;;;16.00;4.50;;;;;;;;;;5094146;28;20044;-66
2022/05/22 08:03:28;;;;;;;13.75;4.60;;;;;;;;;;5095190;28;20482;-66
2022/05/22 08:05:55;;;;;;;18.45;4.88;;;;;;;;;;5094936;28;20367;-65
2022/05/22 08:08:21;;;;;;;10.85;4.15;;;;;;;;;;5095364;28;20079;-66
2022/05/22 08:10:47;;;;;;;11.65;4.90;;;;;;;;;;5094573;28;20048;-66
2022/05/22 08:13:14;;;;;;;13.43;4.25;;;;;;;;;;5094317;28;20119;-66
2022/05/22 08:15:40;;;;;;;10.85;4.65;;;;;;;;;;5094888;28;20040;-66
2022/05/22 08:18:07;;;;;;;15.30;4.82;;;;;;;;;;5096004;28;20047;-66
2022/05/22 08:20:34;;;;;;;11.18;4.30;;;;;;;;;;5094623;28;20080;-67
2022/05/22 08:23:01;;;;;;;19.65;5.85;;;;;;;;;;5094522;28;20061;-66
2022/05/22 08:25:28;;;;;;;15.15;4.78;;;;;;;;;;5094770;28;20043;-66
2022/05/22 08:27:54;;;;;;;12.18;4.25;;;;;;;;;;5095596;28;20048;-66
2022/05/22 08:30:21;;;;;;;10.43;3.70;;;;;;;;;;5093457;28;20042;-66
2022/05/22 08:32:48;;;;;;;10.63;4.32;;;;;;;;;;5090017;28;20033;-66
2022/05/22 08:35:16;;;;;;;14.60;4.30;;;;;;;;;;5091833;28;20576;-66
2022/05/22 08:37:43;;;;;;;16.33;4.45;;;;;;;;;;5094234;28;20089;-66
2022/05/22 08:40:10;;;;;;;14.00;4.75;;;;;;;;;;5094093;28;20070;-66
2022/05/22 08:42:41;;;;;;;9.77;3.88;;;;;;;;;;5075555;28;20494;-66
2022/05/22 08:45:10;;;;;;;14.25;4.97;;;;;;;;;;5094103;28;20043;-66
2022/05/22 08:47:40;;;;;;;12.88;4.57;;;;;;;;;;5091362;28;20115;-66
2022/05/22 08:50:10;;;;;;;11.10;3.13;;;;;;;;;;5093889;28;20044;-66
2022/05/22 08:52:36;;;;;;;10.25;3.55;;;;;;;;;;5091981;28;20043;-66
2022/05/22 08:55:10;;;;;;;9.95;3.35;;;;;;;;;;5091366;28;20399;-66
2022/05/22 09:00:26;;;;;;;10.90;3.05;;;;;;;;;;5092033;28;20048;-66
2022/05/22 09:02:58;;;;;;;33.67;7.90;;;;;;;;;;5093610;28;20124;-67
2022/05/22 09:05:24;;;;;;;7.43;3.00;;;;;;;;;;5094127;28;20040;-66
2022/05/22 09:08:09;;;;;;;11.32;3.20;;;;;;;;;;5093498;28;20040;-67
2022/05/22 09:10:44;;;;;;;13.05;4.13;;;;;;;;;;5092744;28;20040;-67
2022/05/22 09:13:13;;;;;;;14.93;3.60;;;;;;;;;;5097298;28;20103;-67
2022/05/22 09:15:39;;;;;;;;;;;;;;;;;;5100794;28;20109;-67
2022/05/22 09:18:05;;;;;;;9.43;2.90;;;;;;;;;;5099805;28;19983;-66
2022/05/22 09:20:39;;;;;;;7.35;2.55;;;;;;;;;;5111453;28;20547;-66
2022/05/22 09:23:26;;;;;;;8.57;2.55;;;;;;;;;;5086530;28;20533;-66
2022/05/22 09:26:04;;;;;;;7.40;2.65;;;;;;;;;;5094071;28;20039;-66
2022/05/22 09:28:32;;;;;;;12.65;2.90;;;;;;;;;;5086534;28;20089;-65
2022/05/22 09:30:58;;;;;;;7.75;2.53;;;;;;;;;;5093352;28;20048;-66
2022/05/22 09:33:24;;;;;;;10.15;2.88;;;;;;;;;;5093385;28;20047;-66
2022/05/22 09:35:54;;;;;;;5.80;2.42;;;;;;;;;;5092981;28;20052;-67
2022/05/22 09:38:26;;;;;;;12.73;3.80;;;;;;;;;;5093014;28;20529;-67
2022/05/22 09:41:07;;;;;;;9.10;2.83;;;;;;;;;;5090502;28;20047;-67
2022/05/22 09:43:33;;;;;;;6.57;2.25;;;;;;;;;;5092265;28;20382;-67
2022/05/22 09:46:14;;;;;;;12.98;3.10;;;;;;;;;;5092266;28;20163;-67
2022/05/22 09:48:49;;;;;;;19.50;4.45;;;;;;;;;;5092653;28;20040;-67
2022/05/22 09:51:33;;;;;;;7.25;2.03;;;;;;;;;;5074020;28;20040;-67
2022/05/22 09:54:18;;;;;;;7.25;1.90;;;;;;;;;;5093312;28;20506;-67
2022/05/22 09:57:03;;;;;;;7.07;2.10;;;;;;;;;;5092681;28;20061;-67
2022/05/22 09:59:47;;;;;;;7.72;2.13;;;;;;;;;;5092935;28;20487;-68
2022/05/22 10:02:27;;;;;;;8.50;2.67;;;;;;;;;;5093179;28;20040;-67
2022/05/22 10:04:58;;;;;;;12.73;2.67;;;;;;;;;;5092251;28;20044;-67
2022/05/22 10:07:30;;;;;;;6.35;2.03;;;;;;;;;;5089838;28;20032;-68
2022/05/22 10:10:09;;;;;;;20.60;5.53;;;;;;;;;;5092006;28;20452;-65
2022/05/22 10:12:37;;;;;;;8.02;2.28;;;;;;;;;;5071269;28;20032;-66
2022/05/22 10:15:21;;;;;;;26.38;6.18;;;;;;;;;;5092608;28;20131;-67
2022/05/22 10:17:55;;;;;;;8.52;1.98;;;;;;;;;;5091232;28;20119;-67
2022/05/22 10:20:23;;;;;;;6.75;1.70;;;;;;;;;;5087323;28;20044;-67
2022/05/22 10:22:52;;;;;;;5.07;1.80;;;;;;;;;;5091474;28;20047;-68
2022/05/22 10:25:37;;;;;;;6.00;1.58;;;;;;;;;;5091761;28;20032;-68
2022/05/22 10:28:07;;;;;;;6.18;1.98;;;;;;;;;;5092455;28;20052;-68
2022/05/22 10:30:42;;;;;;;5.40;1.77;;;;;;;;;;5092290;28;20048;-67
2022/05/22 10:33:11;;;;;;;9.07;2.40;;;;;;;;;;5092390;28;20632;-67
2022/05/22 10:35:36;;;;;;;;;;;;;;;;;;5092491;28;20058;-67
2022/05/22 10:38:11;;;;;;;8.30;2.22;;;;;;;;;;5092430;28;20003;-67
2022/05/22 10:43:28;;;;;;;9.63;2.50;;;;;;;;;;5089891;28;20047;-67
2022/05/22 10:45:54;;;;;;;8.40;2.10;;;;;;;;;;5092844;28;20547;-66
2022/05/22 10:48:24;;;;;;;17.95;4.22;;;;;;;;;;5092629;28;20044;-67
2022/05/22 10:51:11;;;;;;;10.35;2.78;;;;;;;;;;5092280;28;20376;-67
2022/05/22 10:53:46;;;;;;;6.68;1.95;;;;;;;;;;5089170;28;20118;-67
2022/05/22 10:56:17;;;;;;;12.18;4.03;;;;;;;;;;5092776;28;20124;-67
2022/05/22 10:58:54;;;;;;;7.72;2.33;;;;;;;;;;5087456;28;20521;-66
2022/05/22 11:01:24;;;;;;;8.77;2.13;;;;;;;;;;5080367;28;20093;-67
2022/05/22 11:04:01;;;;;;;9.93;2.67;;;;;;;;;;5091924;28;20059;-66
2022/05/22 11:06:27;;;;;;;9.57;2.22;;;;;;;;;;5091819;28;20044;-66
2022/05/22 11:08:54;;;;;;;6.97;2.10;;;;;;;;;;5092811;28;20046;-66
2022/05/22 11:11:25;;;;;;;7.00;1.80;;;;;;;;;;5092127;28;20052;-66
2022/05/22 11:13:52;;;;;;;5.70;1.50;;;;;;;;;;5083367;28;20127;-66
2022/05/22 11:16:19;;;;;;;10.98;2.10;;;;;;;;;;5091954;28;20036;-66
2022/05/22 11:18:46;;;;;;;9.68;2.90;;;;;;;;;;5091820;28;20093;-66
2022/05/22 11:21:16;;;;;;;7.97;1.92;;;;;;;;;;5091621;28;20051;-66
2022/05/22 11:23:48;;;;;;;6.82;2.25;;;;;;;;;;5092047;28;20044;-66
2022/05/22 11:26:38;;;;;;;9.40;2.10;;;;;;;;;;5091806;28;20040;-66
2022/05/22 11:29:32;;;;;;;6.47;1.48;;;;;;;;;;5095995;28;20036;-66
2022/05/22 11:31:58;;;;;;;14.80;3.08;;;;;;;;;;5095515;28;20043;-67
2022/05/22 11:34:24;;;;;;;12.88;3.17;;;;;;;;;;5095554;28;20120;-67
2022/05/22 11:37:10;;;;;;;11.32;2.90;;;;;;;;;;5095527;28;20123;-66
2022/05/22 11:39:55;;;;;;;7.38;2.20;;;;;;;;;;5090115;28;20132;-67
2022/05/22 11:42:27;;;;;;;9.30;2.45;;;;;;;;;;5091099;28;20052;-67
2022/05/22 11:44:58;;;;;;;14.30;3.65;;;;;;;;;;5095459;28;20075;-67
2022/05/22 11:47:31;;;;;;;8.40;2.47;;;;;;;;;;5094188;28;20048;-66
2022/05/22 11:50:02;;;;;;;7.03;2.03;;;;;;;;;;5095495;28;20042;-66
2022/05/22 11:52:56;;;;;;;7.78;2.35;;;;;;;;;;5096333;28;20048;-66
2022/05/22 11:55:33;;;;;;;6.85;1.80;;;;;;;;;;5095325;28;20044;-65
2022/05/22 11:58:02;;;;;;;8.13;2.20;;;;;;;;;;5095544;28;20051;-66
2022/05/22 12:00:31;;;;;;;8.63;2.13;;;;;;;;;;5095941;28;20494;-65
2022/05/22 12:03:06;;;;;;;6.00;1.80;;;;;;;;;;5095036;28;20098;-66
2022/05/22 12:05:53;;;;;;;7.53;2.30;;;;;;;;;;5095468;28;20490;-66
2022/05/22 12:08:37;;;;;;;8.85;2.08;;;;;;;;;;5095063;28;20051;-66
2022/05/22 12:11:21;;;;;;;6.00;2.00;;;;;;;;;;5095359;28;20065;-66
2022/05/22 12:13:58;;;;;;;4.88;1.73;;;;;;;;;;5095733;28;20074;-67
2022/05/22 12:16:27;;;;;;;7.57;1.88;;;;;;;;;;5094935;28;20047;-66
2022/05/22 12:19:08;;;;;;;9.18;2.35;;;;;;;;;;5093572;28;20047;-65
2022/05/22 12:21:53;;;;;;;6.03;2.05;;;;;;;;;;5094475;28;20052;-67
2022/05/22 12:24:37;;;;;;;5.13;1.88;;;;;;;;;;5094441;28;20041;-67
2022/05/22 12:27:05;;;;;;;5.90;1.80;;;;;;;;;;5094751;28;20051;-67
2022/05/22 12:29:35;;;;;;;11.38;2.20;;;;;;;;;;5094789;28;20040;-68
2022/05/22 12:32:08;;;;;;;8.73;2.00;;;;;;;;;;5094212;28;20494;-67
2022/05/22 12:34:37;;;;;;;8.48;2.25;;;;;;;;;;5092054;28;20412;-67
2022/05/22 12:37:05;;;;;;;12.57;2.47;;;;;;;;;;5095391;28;20398;-67
2022/05/22 12:39:33;;;;;;;5.13;1.35;;;;;;;;;;5092938;28;20097;-67
2022/05/22 12:42:06;;;;;;;7.07;2.03;;;;;;;;;;5094922;28;20612;-67
2022/05/22 12:44:32;;;;;;;4.30;1.88;;;;;;;;;;5097295;28;20036;-67
2022/05/22 12:46:58;;;;;;;28.13;5.85;;;;;;;;;;5095102;28;20086;-67
2022/05/22 12:49:31;;;;;;;9.38;2.90;;;;;;;;;;5093836;28;20075;-66
2022/05/22 12:52:09;;;;;;;7.40;2.35;;;;;;;;;;5075531;28;20047;-67
2022/05/22 12:54:36;;;;;;;8.82;2.80;;;;;;;;;;5094242;28;20115;-69
2022/05/22 12:57:11;;;;;;;8.77;2.42;;;;;;;;;;5094072;28;20075;-67
2022/05/22 12:59:37;;;;;;;13.82;4.10;;;;;;;;;;5093791;28;20131;-68
2022/05/22 13:02:04;;;;;;;6.00;1.65;;;;;;;;;;5094354;28;20043;-67
2022/05/22 13:04:33;;;;;;;4.95;1.50;;;;;;;;;;5092758;28;20085;-67
2022/05/22 13:07:02;;;;;;;7.13;1.90;;;;;;;;;;5093432;28;20088;-66
2022/05/22 13:09:36;;;;;;;5.57;1.98;;;;;;;;;;5094668;28;20109;-67
2022/05/22 13:12:24;;;;;;;6.43;1.83;;;;;;;;;;5093655;28;20044;-67
2022/05/22 13:15:05;;;;;;;5.60;1.60;;;;;;;;;;5093927;28;20055;-66
2022/05/22 13:17:37;;;;;;;7.45;1.50;;;;;;;;;;5093808;28;20044;-66
2022/05/22 13:20:06;;;;;;;5.70;1.73;;;;;;;;;;5094290;28;20048;-66
2022/05/22 13:22:35;;;;;;;6.72;1.77;;;;;;;;;;5093218;28;20074;-67
2022/05/22 13:25:03;;;;;;;7.85;1.92;;;;;;;;;;5092932;28;20051;-67
2022/05/22 13:27:29;;;;;;;12.50;3.30;;;;;;;;;;5093140;28;20486;-66
2022/05/22 13:29:56;;;;;;;7.82;2.30;;;;;;;;;;5093819;28;20050;-67
2022/05/22 13:32:25;;;;;;;8.30;2.03;;;;;;;;;;5093362;28;20399;-67
2022/05/22 13:34:51;;;;;;;7.05;1.95;;;;;;;;;;5093034;28;20074;-68
2022/05/22 13:37:25;;;;;;;4.53;1.35;;;;;;;;;;5093858;28;20062;-66
2022/05/22 13:39:52;;;;;;;11.73;4.78;;;;;;;;;;5093555;28;20040;-67
2022/05/22 13:42:37;;;;;;;13.75;2.53;;;;;;;;;;5093196;28;20043;-67
2022/05/22 13:45:03;;;;;;;8.73;2.28;;;;;;;;;;5093328;28;20047;-67
2022/05/22 13:47:38;;;;;;;12.57;2.72;;;;;;;;;;5093973;28;20552;-66
2022/05/22 13:53:21;;;;;;;8.13;2.45;;;;;;;;;;5092910;28;20044;-67
2022/05/22 13:55:48;;;;;;;6.55;1.67;;;;;;;;;;5093037;28;20140;-68
2022/05/22 13:58:21;;;;;;;3.92;1.60;;;;;;;;;;5093121;28;20036;-67
2022/05/22 14:00:49;;;;;;;8.85;2.40;;;;;;;;;;5092938;28;20101;-67
2022/05/22 14:03:20;;;;;;;13.77;4.10;;;;;;;;;;5092726;28;20048;-67
2022/05/22 14:05:51;;;;;;;8.10;2.00;;;;;;;;;;5091236;28;20290;-68
2022/05/22 14:08:21;;;;;;;13.20;3.50;;;;;;;;;;5093366;28;20040;-67
2022/05/22 14:10:55;;;;;;;6.55;2.38;;;;;;;;;;5092553;28;20051;-67
2022/05/22 14:13:22;;;;;;;10.45;2.13;;;;;;;;;;5087915;28;20044;-67
2022/05/22 14:15:51;;;;;;;13.68;2.85;;;;;;;;;;5092553;28;20119;-67
2022/05/22 14:18:19;;;;;;;14.75;4.20;;;;;;;;;;5093157;28;20409;-67
2022/05/22 14:20:46;;;;;;;14.32;4.05;;;;;;;;;;5092826;28;20040;-67
2022/05/22 14:23:12;;;;;;;5.60;1.83;;;;;;;;;;5092317;28;20491;-68
2022/05/22 14:25:40;;;;;;;6.90;1.73;;;;;;;;;;5092014;28;20032;-67
2022/05/22 14:28:07;;;;;;;19.35;3.83;;;;;;;;;;5092553;28;20098;-67
2022/05/22 14:30:40;;;;;;;6.63;1.77;;;;;;;;;;5092950;28;20047;-67
2022/05/22 14:33:09;;;;;;;12.43;3.90;;;;;;;;;;5091310;28;20415;-67
2022/05/22 14:35:37;;;;;;;14.18;3.03;;;;;;;;;;5090821;28;20052;-68
2022/05/22 14:38:15;;;;;;;10.75;2.80;;;;;;;;;;5092066;28;20110;-67
2022/05/22 14:40:41;;;;;;;;;;;;;;;;;;5093057;28;20040;-67
2022/05/22 14:43:07;;;;;;;11.23;2.60;;;;;;;;;;5092929;28;19947;-67
2022/05/22 14:45:35;;;;;;;7.60;1.85;;;;;;;;;;5091916;28;20174;-67
2022/05/22 14:48:05;;;;;;;7.93;1.83;;;;;;;;;;5092020;28;20040;-67
2022/05/22 14:50:32;;;;;;;19.92;5.95;;;;;;;;;;5056302;28;20044;-67
2022/05/22 14:53:06;;;;;;;58.55;14.52;;;;;;;;;;5092155;28;20048;-68
2022/05/22 14:55:36;;;;;;;21.42;5.72;;;;;;;;;;5092462;28;20106;-68
2022/05/22 14:58:15;;;;;;;33.65;8.02;;;;;;;;;;5091536;28;20040;-65
2022/05/22 15:00:45;;;;;;;15.98;3.83;;;;;;;;;;5091959;28;20048;-67